createdAt,value
2023-01-22T00:03:30.835Z,2.60
2023-01-22T00:05:57.987Z,3.20
2023-01-22T00:08:25.360Z,3.50
2023-01-22T00:10:53.085Z,3.20
2023-01-22T00:13:21.051Z,3.30
2023-01-22T00:15:48.228Z,7.70
2023-01-22T00:18:15.383Z,9.90
2023-01-22T00:20:46.795Z,8.50
2023-01-22T00:23:13.849Z,10.00
2023-01-22T00:25:40.898Z,9.90
2023-01-22T00:28:08.149Z,9.70
2023-01-22T00:30:35.403Z,10.80
2023-01-22T00:33:02.444Z,10.70
2023-01-22T00:35:29.504Z,12.40
2023-01-22T00:37:56.538Z,13.60
2023-01-22T00:40:23.689Z,13.50
2023-01-22T00:42:50.843Z,16.30
2023-01-22T00:45:17.997Z,17.50
2023-01-22T00:47:45.036Z,17.70
2023-01-22T00:50:12.091Z,20.10
2023-01-22T00:52:39.229Z,18.70
2023-01-22T00:55:07.211Z,21.80
2023-01-22T00:57:34.878Z,21.90
2023-01-22T04:14:57.414Z,18.40
2023-01-22T04:17:26.915Z,18.70
2023-01-22T04:20:12.602Z,19.80
2023-01-22T04:23:06.583Z,20.50
2023-01-22T04:25:35.167Z,18.80
2023-01-22T04:28:02.621Z,19.60
2023-01-22T04:30:30.184Z,19.80
2023-01-22T04:33:08.493Z,17.80
2023-01-22T04:35:55.715Z,16.70
2023-01-22T04:38:23.373Z,14.70
2023-01-22T04:40:52.161Z,15.40
2023-01-22T04:43:19.719Z,15.20
2023-01-22T04:45:49.751Z,14.10
2023-01-22T04:48:18.733Z,14.30
2023-01-22T04:50:46.907Z,14.00
2023-01-22T04:53:14.459Z,14.30
2023-01-22T04:55:42.339Z,14.50
2023-01-22T04:58:10.609Z,14.20
2023-01-22T05:00:38.166Z,13.10
2023-01-22T05:03:05.724Z,13.30
2023-01-22T05:05:34.200Z,12.50
2023-01-22T05:08:01.757Z,13.40
2023-01-22T05:10:30.135Z,12.10
2023-01-22T05:13:02.404Z,12.60
2023-01-22T05:15:29.616Z,13.10
2023-01-22T05:18:02.472Z,11.80
2023-01-22T05:20:29.894Z,12.20
2023-01-22T05:22:59.193Z,12.30
2023-01-22T05:25:27.167Z,15.00
2023-01-22T05:27:55.949Z,22.70
2023-01-22T05:30:49.182Z,20.00
2023-01-22T05:33:29.878Z,15.00
2023-01-22T05:35:58.152Z,13.70
2023-01-22T05:38:25.815Z,13.70
2023-01-22T05:40:53.579Z,13.60
2023-01-22T05:43:26.051Z,14.60
2023-01-22T05:46:02.257Z,13.90
2023-01-22T05:48:49.534Z,15.90
2023-01-22T05:51:32.433Z,14.20
2023-01-22T05:54:00.048Z,13.80
2023-01-22T05:56:31.211Z,13.00
2023-01-22T05:58:58.101Z,13.90
2023-01-22T06:01:25.296Z,14.20
2023-01-22T06:03:52.632Z,13.40
2023-01-22T06:06:23.548Z,12.60
2023-01-22T06:08:52.354Z,12.50
2023-01-22T06:11:20.622Z,13.40
2023-01-22T06:13:47.773Z,13.20
2023-01-22T06:16:16.980Z,12.50
2023-01-22T06:18:54.239Z,14.40
2023-01-22T06:21:22.241Z,13.30
2023-01-22T06:23:49.251Z,12.50
2023-01-22T06:26:16.916Z,12.60
2023-01-22T06:28:44.165Z,11.40
2023-01-22T06:31:12.116Z,12.80
2023-01-22T06:33:40.935Z,12.80
2023-01-22T06:36:08.695Z,12.50
2023-01-22T06:38:36.768Z,12.20
2023-01-22T06:41:04.732Z,11.70
2023-01-22T06:43:33.215Z,13.00
2023-01-22T06:46:00.560Z,11.10
2023-01-22T06:48:50.747Z,14.10
2023-01-22T06:51:17.775Z,12.10
2023-01-22T06:53:45.764Z,12.70
2023-01-22T06:56:12.711Z,11.90
2023-01-22T06:58:39.963Z,12.00
2023-01-22T07:01:07.317Z,11.70
2023-01-22T07:03:34.999Z,12.50
2023-01-22T07:06:03.456Z,11.70
2023-01-22T07:08:31.432Z,11.50
2023-01-22T07:10:58.985Z,12.60
2023-01-22T07:13:26.563Z,11.80
2023-01-22T07:15:53.662Z,12.00
2023-01-22T07:18:23.455Z,13.40
2023-01-22T07:20:50.755Z,13.00
2023-01-22T07:23:18.112Z,16.40
2023-01-22T07:25:46.190Z,14.30
2023-01-22T07:28:16.916Z,14.20
2023-01-22T07:30:46.470Z,12.20
2023-01-22T07:33:14.180Z,13.20
2023-01-22T07:35:41.126Z,14.70
2023-01-22T07:38:08.394Z,14.30
2023-01-22T07:40:35.736Z,13.20
2023-01-22T07:43:06.563Z,13.80
2023-01-22T07:45:36.174Z,13.00
2023-01-22T07:48:07.213Z,13.60
2023-01-22T07:50:36.350Z,13.50
2023-01-22T07:53:03.366Z,13.40
2023-01-22T07:55:32.256Z,13.60
2023-01-22T07:58:01.340Z,12.50
2023-01-22T08:00:28.392Z,13.30
2023-01-22T08:02:58.811Z,13.10
2023-01-22T08:05:25.969Z,13.10
2023-01-22T08:07:53.434Z,13.30
2023-01-22T08:10:21.019Z,12.40
2023-01-22T08:12:49.766Z,13.50
2023-01-22T08:15:16.916Z,13.30
2023-01-22T08:17:43.972Z,13.00
2023-01-22T08:20:11.728Z,12.80
2023-01-22T08:22:39.508Z,13.40
2023-01-22T08:25:07.354Z,17.30
2023-01-22T08:27:34.811Z,15.90
2023-01-22T08:30:03.508Z,15.00
2023-01-22T08:32:31.042Z,13.00
2023-01-22T08:34:58.297Z,12.40
2023-01-22T08:37:25.358Z,13.60
2023-01-22T08:39:52.303Z,13.60
2023-01-22T08:42:19.451Z,13.50
2023-01-22T08:44:46.484Z,13.00
2023-01-22T08:47:13.451Z,13.90
2023-01-22T08:49:40.593Z,14.30
2023-01-22T08:52:07.637Z,15.20
2023-01-22T08:54:35.603Z,14.30
2023-01-22T08:57:02.767Z,13.10
2023-01-22T08:59:31.067Z,12.80
2023-01-22T09:01:59.327Z,13.50
2023-01-22T09:04:26.968Z,13.10
2023-01-22T09:06:54.358Z,12.30
2023-01-22T09:09:21.481Z,12.70
2023-01-22T09:11:48.547Z,12.60
2023-01-22T09:14:15.667Z,13.50
2023-01-22T09:16:42.679Z,13.00
2023-01-22T09:19:09.872Z,13.60
2023-01-22T09:21:37.723Z,12.00
2023-01-22T09:24:05.799Z,12.10
2023-01-22T09:26:34.207Z,13.70
2023-01-22T09:29:03.799Z,12.20
2023-01-22T09:31:34.890Z,12.80
2023-01-22T09:34:02.097Z,12.10
2023-01-22T09:36:29.850Z,11.60
2023-01-22T09:38:56.792Z,11.90
2023-01-22T09:41:33.865Z,12.80
2023-01-22T09:44:29.889Z,11.60
2023-01-22T09:47:02.978Z,11.40
2023-01-22T09:49:55.890Z,11.70
2023-01-22T09:52:28.343Z,12.80
2023-01-22T09:54:55.675Z,11.40
2023-01-22T09:57:31.321Z,12.50
2023-01-22T09:59:59.407Z,10.60
2023-01-22T13:09:24.309Z,12.00
2023-01-22T13:11:51.562Z,12.50
2023-01-22T13:14:21.232Z,13.10
2023-01-22T13:16:56.811Z,13.00
2023-01-22T13:19:26.623Z,12.10
2023-01-22T13:21:57.053Z,12.00
2023-01-22T13:24:24.608Z,11.20
2023-01-22T13:26:56.772Z,10.00
2023-01-22T13:29:36.369Z,11.00
2023-01-22T13:32:14.626Z,11.70
2023-01-22T13:34:41.572Z,11.80
2023-01-22T13:37:22.340Z,11.70
2023-01-22T13:39:53.278Z,10.30
2023-01-22T13:42:20.428Z,10.40
2023-01-22T13:44:50.953Z,9.00
2023-01-22T13:47:33.158Z,8.90
2023-01-22T13:50:00.656Z,9.10
2023-01-22T13:52:28.588Z,8.60
2023-01-22T13:55:00.440Z,9.00
2023-01-22T13:57:27.492Z,8.60
2023-01-22T13:59:55.997Z,9.00
2023-01-22T14:02:32.035Z,9.70
2023-01-22T14:04:59.277Z,11.90
2023-01-22T14:07:33.088Z,11.10
2023-01-22T14:10:18.698Z,9.70
2023-01-22T14:12:46.222Z,8.40
2023-01-22T14:15:17.946Z,9.20
2023-01-22T14:17:44.827Z,10.30
2023-01-22T14:20:12.186Z,9.20
2023-01-22T14:22:39.751Z,10.70
2023-01-22T14:25:08.215Z,10.20
2023-01-22T14:27:46.756Z,10.70
2023-01-22T14:30:16.209Z,10.30
2023-01-22T14:32:43.697Z,10.90
2023-01-22T14:35:18.726Z,11.20
2023-01-22T14:37:46.104Z,12.30
2023-01-22T14:40:14.234Z,11.90
2023-01-22T14:42:41.812Z,12.40
2023-01-22T14:45:09.786Z,14.80
2023-01-22T14:47:37.141Z,15.70
2023-01-22T14:50:05.924Z,13.50
2023-01-22T14:52:34.033Z,14.80
2023-01-22T14:55:01.040Z,15.00
2023-01-22T14:57:28.089Z,14.30
2023-01-22T14:59:55.645Z,15.40
2023-01-22T15:02:23.115Z,17.40
2023-01-22T15:04:50.372Z,19.40
2023-01-22T15:07:17.376Z,18.90
2023-01-22T15:09:44.346Z,18.60
2023-01-22T15:12:11.397Z,17.40
2023-01-22T15:14:39.157Z,16.50
2023-01-22T15:17:06.407Z,16.10
2023-01-22T15:19:40.887Z,18.60
2023-01-22T15:22:09.621Z,18.10
2023-01-22T15:24:39.020Z,16.30
2023-01-22T15:27:06.882Z,19.10
2023-01-22T15:29:33.832Z,16.00
2023-01-22T15:32:03.024Z,16.20
2023-01-22T15:34:30.993Z,15.00
2023-01-22T15:36:58.257Z,15.90
2023-01-22T15:39:29.107Z,15.70
2023-01-22T15:41:56.946Z,16.40
2023-01-22T15:44:24.094Z,17.30
2023-01-22T15:46:51.232Z,16.20
2023-01-22T15:49:18.404Z,14.30
2023-01-22T15:51:45.444Z,14.20
2023-01-22T15:54:14.637Z,15.80
2023-01-22T15:56:41.890Z,14.10
2023-01-22T15:59:10.067Z,14.40
2023-01-22T16:01:37.335Z,14.30
2023-01-22T19:54:09.982Z,36.10
2023-01-22T19:56:37.851Z,34.70
2023-01-22T19:59:07.664Z,34.20
2023-01-22T20:01:36.380Z,36.60
2023-01-22T20:04:04.720Z,33.50
2023-01-22T20:06:31.876Z,34.40
2023-01-22T20:08:59.329Z,33.50
2023-01-22T20:11:26.684Z,33.60
2023-01-22T20:13:53.846Z,36.20
2023-01-22T20:16:23.621Z,35.50
2023-01-22T20:18:51.418Z,35.20
2023-01-22T20:21:19.376Z,34.00
2023-01-22T20:23:47.136Z,32.30
2023-01-22T20:26:14.852Z,32.90
2023-01-22T20:28:41.963Z,31.90
2023-01-22T20:31:19.498Z,30.00
2023-01-22T20:33:48.229Z,29.60
2023-01-22T20:36:16.306Z,30.00
2023-01-22T20:38:45.391Z,30.30
2023-01-22T20:41:12.747Z,29.00
2023-01-22T20:43:40.822Z,31.30
2023-01-22T20:46:11.765Z,29.40
2023-01-22T20:48:41.158Z,30.30
2023-01-22T20:51:15.413Z,30.40
2023-01-22T20:53:43.764Z,29.80
2023-01-22T20:56:14.094Z,30.90
2023-01-22T20:58:41.531Z,27.50
2023-01-22T21:01:11.130Z,29.70
2023-01-22T21:03:38.186Z,27.90
2023-01-22T21:06:07.056Z,28.40
2023-01-22T21:08:34.527Z,26.00
2023-01-22T21:11:06.081Z,27.20
2023-01-22T21:16:08.106Z,27.10
2023-01-22T21:18:35.657Z,26.00
2023-01-22T21:21:04.305Z,24.50
2023-01-22T21:23:31.462Z,24.60
2023-01-22T21:26:12.243Z,23.60
2023-01-22T21:28:39.738Z,24.30
2023-01-22T21:31:08.589Z,22.20
2023-01-22T21:33:36.337Z,22.70
2023-01-22T21:36:04.505Z,20.40
2023-01-22T21:38:31.878Z,19.40
2023-01-22T21:41:10.093Z,19.00
2023-01-22T21:43:55.344Z,17.90
2023-01-22T21:46:22.491Z,19.50
2023-01-22T21:48:49.861Z,17.00
2023-01-22T21:51:17.675Z,18.50
2023-01-22T21:53:44.763Z,18.70
2023-01-22T21:56:11.908Z,19.30
2023-01-22T21:58:41.833Z,20.10
2023-01-22T22:01:09.007Z,21.10
2023-01-22T22:03:36.788Z,19.20
2023-01-22T22:06:04.304Z,18.70
2023-01-22T22:08:31.853Z,17.40
2023-01-22T22:10:59.719Z,18.90
2023-01-22T22:13:26.973Z,19.90
2023-01-22T22:15:54.329Z,19.30
2023-01-22T22:18:21.790Z,20.80
2023-01-22T22:20:48.855Z,18.50
2023-01-22T22:23:15.771Z,19.10
2023-01-22T22:25:47.121Z,17.80
2023-01-22T22:28:14.785Z,16.50
2023-01-22T22:30:41.800Z,17.70
2023-01-22T22:33:08.876Z,17.30
2023-01-22T22:35:36.247Z,16.00
2023-01-22T22:38:03.479Z,15.10
2023-01-22T22:40:32.471Z,14.40
2023-01-22T22:42:59.932Z,15.20
2023-01-22T22:45:26.976Z,14.60
2023-01-22T22:47:53.921Z,15.80
2023-01-22T22:50:21.612Z,16.50
2023-01-22T22:52:49.149Z,16.30
2023-01-22T22:55:16.127Z,16.10
2023-01-22T22:57:43.444Z,15.60
2023-01-22T23:00:12.748Z,15.70
2023-01-22T23:02:40.606Z,14.30
2023-01-22T23:05:08.061Z,14.00
2023-01-22T23:07:36.336Z,13.70
2023-01-22T23:10:04.727Z,13.10
2023-01-22T23:12:31.863Z,14.40
2023-01-22T23:14:59.015Z,13.40
2023-01-22T23:17:26.365Z,13.80
2023-01-22T23:19:53.431Z,14.10
2023-01-22T23:22:20.772Z,13.30
2023-01-22T23:24:47.916Z,12.90
2023-01-22T23:27:15.069Z,13.40
2023-01-22T23:29:42.317Z,13.90
2023-01-22T23:32:09.576Z,13.90
2023-01-22T23:34:37.046Z,13.50
2023-01-22T23:37:03.869Z,12.10
2023-01-22T23:39:31.323Z,13.60
2023-01-22T23:41:58.575Z,14.00
2023-01-22T23:44:25.621Z,14.60
2023-01-22T23:46:52.878Z,13.60
2023-01-22T23:49:19.826Z,12.90
2023-01-22T23:51:46.967Z,13.90
2023-01-22T23:54:14.218Z,13.40
2023-01-22T23:56:41.376Z,15.50
2023-01-22T23:59:10.150Z,15.60
